createdAt,value
2022-10-17T00:02:37.917Z,13.94
2022-10-17T00:05:42.034Z,13.97
2022-10-17T00:08:45.827Z,13.99
2022-10-17T00:11:49.880Z,13.99
2022-10-17T00:14:52.464Z,13.99
2022-10-17T00:17:55.311Z,14.00
2022-10-17T00:20:57.884Z,13.99
2022-10-17T00:24:01.697Z,14.00
2022-10-17T00:27:05.895Z,14.01
2022-10-17T00:30:12.137Z,14.02
2022-10-17T00:33:14.883Z,13.98
2022-10-17T00:36:19.559Z,13.97
2022-10-17T00:39:22.250Z,13.97
2022-10-17T00:42:26.790Z,13.97
2022-10-17T00:45:31.266Z,13.98
2022-10-17T00:48:34.018Z,14.00
2022-10-17T00:51:42.341Z,14.04
2022-10-17T00:54:49.417Z,14.05
2022-10-17T00:57:54.305Z,14.07
2022-10-17T01:00:57.009Z,14.03
2022-10-17T01:03:59.972Z,14.03
2022-10-17T01:07:02.600Z,14.05
2022-10-17T01:10:08.607Z,14.09
2022-10-17T01:13:19.859Z,14.12
2022-10-17T01:16:31.287Z,14.14
2022-10-17T01:19:59.087Z,14.22
2022-10-17T01:23:24.124Z,14.18
2022-10-17T01:26:37.928Z,14.14
2022-10-17T01:30:04.400Z,14.14
2022-10-17T01:33:13.865Z,14.17
2022-10-17T01:36:27.346Z,14.15
2022-10-17T01:39:43.942Z,14.14
2022-10-17T01:42:55.740Z,14.12
2022-10-17T01:46:02.896Z,14.11
2022-10-17T01:49:09.372Z,14.22
2022-10-17T01:52:16.104Z,14.14
2022-10-17T01:55:22.652Z,14.07
2022-10-17T01:58:28.720Z,14.05
2022-10-17T02:01:32.563Z,14.04
2022-10-17T02:04:37.224Z,14.03
2022-10-17T02:07:42.585Z,14.01
2022-10-17T02:10:52.172Z,14.00
2022-10-17T02:14:22.092Z,13.97
2022-10-17T02:17:37.605Z,13.96
2022-10-17T02:20:52.806Z,13.97
2022-10-17T02:24:01.691Z,13.98
2022-10-17T02:27:09.794Z,14.01
2022-10-17T02:30:17.114Z,14.07
2022-10-17T02:33:24.302Z,14.13
2022-10-17T02:36:33.526Z,14.14
2022-10-17T02:39:39.472Z,14.17
2022-10-17T02:42:45.822Z,14.25
2022-10-17T02:45:49.216Z,14.27
2022-10-17T02:48:54.260Z,14.33
2022-10-17T02:52:05.043Z,14.35
2022-10-17T02:55:13.364Z,14.38
2022-10-17T02:58:20.790Z,14.39
2022-10-17T03:01:24.076Z,14.42
2022-10-17T03:04:26.662Z,14.47
2022-10-17T03:07:30.660Z,14.43
2022-10-17T03:10:33.344Z,14.42
2022-10-17T03:13:38.919Z,14.45
2022-10-17T03:16:42.593Z,14.50
2022-10-17T03:19:45.168Z,14.51
2022-10-17T03:22:49.146Z,14.45
2022-10-17T03:25:51.690Z,14.48
2022-10-17T03:28:54.697Z,14.50
2022-10-17T03:31:57.516Z,14.44
2022-10-17T03:35:00.171Z,14.43
2022-10-17T03:38:04.142Z,14.47
2022-10-17T03:41:07.624Z,14.53
2022-10-17T03:44:10.220Z,14.51
2022-10-17T03:47:14.215Z,14.50
2022-10-17T03:50:17.033Z,14.51
2022-10-17T03:53:21.059Z,14.45
2022-10-17T03:56:25.154Z,14.40
2022-10-17T03:59:27.801Z,14.39
2022-10-17T04:02:30.375Z,14.36
2022-10-17T04:05:32.918Z,14.37
2022-10-17T04:08:36.961Z,14.32
2022-10-17T04:11:39.865Z,14.34
2022-10-17T04:14:42.577Z,14.40
2022-10-17T04:17:45.165Z,14.44
2022-10-17T04:20:47.707Z,14.41
2022-10-17T04:23:54.451Z,14.37
2022-10-17T04:26:56.999Z,14.36
2022-10-17T04:29:59.567Z,14.36
2022-10-17T04:33:02.205Z,14.41
2022-10-17T04:36:07.061Z,14.38
2022-10-17T04:39:11.206Z,14.40
2022-10-17T04:42:13.782Z,14.42
2022-10-17T04:45:16.525Z,14.38
2022-10-17T04:48:19.263Z,14.42
2022-10-17T04:51:24.503Z,14.43
2022-10-17T04:54:30.468Z,14.37
2022-10-17T04:57:35.843Z,14.34
2022-10-17T05:00:38.558Z,14.36
2022-10-17T05:03:41.558Z,14.38
2022-10-17T05:06:44.279Z,14.41
2022-10-17T05:09:48.187Z,14.40
2022-10-17T05:12:51.986Z,14.49
2022-10-17T05:15:54.970Z,14.41
2022-10-17T05:18:59.055Z,14.42
2022-10-17T05:22:01.713Z,14.41
2022-10-17T05:25:06.587Z,14.44
2022-10-17T05:28:09.456Z,14.40
2022-10-17T05:31:12.635Z,14.43
2022-10-17T05:34:15.189Z,14.43
2022-10-17T05:37:17.775Z,14.41
2022-10-17T05:40:21.838Z,14.43
2022-10-17T05:43:24.373Z,14.38
2022-10-17T05:46:27.042Z,14.35
2022-10-17T05:49:44.731Z,14.34
2022-10-17T05:52:54.235Z,14.39
2022-10-17T05:55:59.346Z,14.48
2022-10-17T05:59:01.988Z,14.52
2022-10-17T06:02:04.785Z,14.61
2022-10-17T06:05:07.696Z,14.59
2022-10-17T06:08:10.270Z,14.70
2022-10-17T06:11:14.724Z,14.70
2022-10-17T06:14:17.434Z,14.80
2022-10-17T06:17:20.175Z,14.86
2022-10-17T06:20:22.723Z,14.96
2022-10-17T06:23:25.435Z,14.96
2022-10-17T06:26:29.422Z,14.98
2022-10-17T06:29:32.044Z,15.07
2022-10-17T06:32:34.685Z,15.22
2022-10-17T06:35:37.237Z,15.37
2022-10-17T06:38:39.836Z,15.52
2022-10-17T06:41:44.546Z,15.70
2022-10-17T06:44:47.135Z,15.89
2022-10-17T06:47:50.358Z,16.08
2022-10-17T06:50:52.945Z,16.07
2022-10-17T06:53:55.605Z,16.12
2022-10-17T06:56:59.493Z,16.21
2022-10-17T07:00:02.187Z,16.41
2022-10-17T07:03:04.898Z,16.52
2022-10-17T07:06:07.940Z,16.65
2022-10-17T07:09:10.551Z,16.62
2022-10-17T07:12:14.481Z,16.71
2022-10-17T07:15:17.279Z,16.92
2022-10-17T07:18:19.857Z,17.23
2022-10-17T07:21:22.443Z,17.28
2022-10-17T07:24:25.018Z,17.40
2022-10-17T07:27:29.468Z,17.53
2022-10-17T07:30:32.318Z,17.46
2022-10-17T07:33:35.019Z,17.38
2022-10-17T07:36:37.821Z,17.33
2022-10-17T07:39:40.896Z,17.34
2022-10-17T07:42:44.840Z,17.50
2022-10-17T07:45:47.425Z,17.50
2022-10-17T07:48:49.981Z,17.56
2022-10-17T07:51:52.685Z,17.58
2022-10-17T07:54:55.302Z,17.56
2022-10-17T07:58:00.582Z,17.66
2022-10-17T08:01:05.938Z,17.83
2022-10-17T08:04:10.001Z,17.85
2022-10-17T08:07:20.931Z,18.06
2022-10-17T08:10:29.292Z,18.20
2022-10-17T08:13:33.720Z,18.46
2022-10-17T08:16:36.778Z,18.42
2022-10-17T08:19:40.273Z,18.56
2022-10-17T08:22:43.047Z,18.59
2022-10-17T08:25:45.608Z,18.82
2022-10-17T08:28:50.373Z,18.74
2022-10-17T08:31:58.517Z,18.73
2022-10-17T08:35:04.075Z,18.76
2022-10-17T08:38:09.983Z,18.90
2022-10-17T08:41:21.522Z,19.09
2022-10-17T08:44:38.356Z,19.22
2022-10-17T08:47:44.230Z,19.28
2022-10-17T08:50:52.868Z,19.25
2022-10-17T08:54:02.413Z,19.36
2022-10-17T08:57:05.110Z,19.45
2022-10-17T09:00:16.511Z,19.74
2022-10-17T09:03:33.839Z,19.73
2022-10-17T09:06:39.963Z,19.86
2022-10-17T09:09:50.878Z,19.89
2022-10-17T09:13:06.857Z,20.05
2022-10-17T09:16:32.954Z,20.35
2022-10-17T09:19:39.347Z,20.47
2022-10-17T09:22:47.475Z,20.57
2022-10-17T09:25:53.687Z,20.70
2022-10-17T09:28:59.460Z,20.88
2022-10-17T09:32:05.682Z,21.19
2022-10-17T09:35:14.317Z,21.44
2022-10-17T09:38:19.216Z,21.72
2022-10-17T09:44:53.129Z,22.49
2022-10-17T09:48:03.785Z,22.65
2022-10-17T09:51:25.150Z,23.04
2022-10-17T09:54:40.881Z,23.43
2022-10-17T09:57:54.825Z,23.70
2022-10-17T10:01:21.037Z,23.93
2022-10-17T10:04:30.337Z,24.08
2022-10-17T10:07:40.469Z,24.36
2022-10-17T10:10:44.469Z,24.50
2022-10-17T10:13:49.280Z,24.35
2022-10-17T10:16:53.753Z,24.11
2022-10-17T10:19:57.693Z,23.85
2022-10-17T10:23:08.884Z,23.80
2022-10-17T10:26:26.447Z,23.90
2022-10-17T10:29:32.464Z,24.06
2022-10-17T10:32:37.612Z,24.30
2022-10-17T10:35:41.648Z,24.77
2022-10-17T10:38:54.905Z,25.10
2022-10-17T10:41:57.733Z,25.21
2022-10-17T10:45:03.968Z,25.34
2022-10-17T10:48:20.106Z,25.56
2022-10-17T10:51:29.322Z,25.23
2022-10-17T10:54:36.683Z,25.39
2022-10-17T10:57:41.023Z,25.48
2022-10-17T11:00:44.488Z,25.57
2022-10-17T11:03:57.201Z,25.83
2022-10-17T11:07:06.097Z,25.73
2022-10-17T11:10:15.083Z,25.77
2022-10-17T11:13:24.395Z,25.79
2022-10-17T11:16:33.975Z,25.84
2022-10-17T11:19:40.945Z,25.87
2022-10-17T11:22:48.148Z,26.09
2022-10-17T11:25:53.320Z,26.09
2022-10-17T11:28:57.201Z,26.02
2022-10-17T11:32:08.945Z,26.35
2022-10-17T11:35:21.376Z,26.14
2022-10-17T11:38:37.621Z,25.95
2022-10-17T11:41:44.279Z,26.05
2022-10-17T11:44:46.919Z,26.03
2022-10-17T11:47:54.298Z,26.12
2022-10-17T11:54:33.924Z,26.13
2022-10-17T11:57:50.932Z,26.63
2022-10-17T12:01:01.583Z,26.58
2022-10-17T12:04:23.022Z,26.74
2022-10-17T12:07:37.705Z,26.77
2022-10-17T12:10:49.773Z,27.03
2022-10-17T12:13:55.185Z,27.00
2022-10-17T12:16:57.895Z,26.94
2022-10-17T12:20:28.336Z,26.62
2022-10-17T12:23:32.601Z,26.71
2022-10-17T12:26:36.554Z,26.76
2022-10-17T12:29:39.160Z,26.61
2022-10-17T12:33:05.617Z,26.74
2022-10-17T12:36:45.050Z,26.58
2022-10-17T12:39:47.657Z,26.48
2022-10-17T12:42:51.818Z,26.50
2022-10-17T12:45:56.144Z,26.34
2022-10-17T12:49:05.007Z,26.22
2022-10-17T12:52:20.854Z,26.09
2022-10-17T12:55:25.630Z,26.12
2022-10-17T12:58:32.137Z,26.07
2022-10-17T13:01:37.990Z,25.95
2022-10-17T13:04:40.677Z,25.94
2022-10-17T13:07:46.972Z,25.74
2022-10-17T13:10:52.664Z,25.74
2022-10-17T13:13:59.340Z,25.60
2022-10-17T13:17:04.049Z,25.61
2022-10-17T13:20:24.466Z,25.58
2022-10-17T13:23:33.110Z,25.63
2022-10-17T13:26:35.724Z,25.71
2022-10-17T13:29:45.508Z,25.80
2022-10-17T13:32:48.105Z,25.99
2022-10-17T13:36:06.170Z,25.88
2022-10-17T13:39:12.483Z,25.97
2022-10-17T13:42:23.549Z,25.74
2022-10-17T13:45:32.568Z,25.69
2022-10-17T13:48:38.859Z,25.68
2022-10-17T13:51:44.892Z,25.61
2022-10-17T13:54:50.942Z,25.64
2022-10-17T13:57:53.636Z,25.70
2022-10-17T14:00:58.433Z,25.56
2022-10-17T14:04:09.043Z,25.64
2022-10-17T14:07:29.294Z,25.27
2022-10-17T14:10:36.713Z,25.35
2022-10-17T14:13:39.786Z,25.22
2022-10-17T14:16:44.938Z,25.44
2022-10-17T14:19:55.496Z,25.17
2022-10-17T14:23:30.604Z,25.23
2022-10-17T14:26:37.151Z,25.12
2022-10-17T14:29:52.682Z,25.26
2022-10-17T14:32:59.084Z,24.95
2022-10-17T14:36:03.686Z,25.09
2022-10-17T14:39:14.177Z,24.92
2022-10-17T14:42:20.738Z,24.81
2022-10-17T14:45:28.204Z,24.57
2022-10-17T14:48:33.030Z,24.70
2022-10-17T14:51:50.227Z,24.74
2022-10-17T14:55:01.592Z,24.51
2022-10-17T14:58:17.346Z,24.48
2022-10-17T15:01:20.671Z,24.28
2022-10-17T15:04:24.710Z,24.06
2022-10-17T15:07:27.337Z,23.92
2022-10-17T15:10:34.473Z,24.02
2022-10-17T15:13:42.145Z,23.94
2022-10-17T15:16:47.392Z,23.82
2022-10-17T15:19:54.588Z,23.79
2022-10-17T15:22:58.935Z,23.67
2022-10-17T15:26:02.023Z,23.67
2022-10-17T15:29:05.183Z,23.57
2022-10-17T15:32:07.943Z,23.61
2022-10-17T15:35:12.266Z,23.50
2022-10-17T15:38:18.990Z,23.43
2022-10-17T15:41:21.916Z,23.38
2022-10-17T15:44:24.560Z,23.24
2022-10-17T15:47:31.199Z,23.36
2022-10-17T15:50:35.564Z,23.19
2022-10-17T15:53:38.258Z,23.06
2022-10-17T15:56:43.138Z,23.02
2022-10-17T15:59:47.086Z,22.92
2022-10-17T16:02:50.328Z,22.82
2022-10-17T16:05:54.254Z,22.77
2022-10-17T16:08:56.974Z,22.61
2022-10-17T16:11:59.569Z,22.55
2022-10-17T16:15:02.223Z,22.44
2022-10-17T16:18:07.318Z,22.34
2022-10-17T16:21:14.303Z,22.25
2022-10-17T16:24:17.844Z,22.19
2022-10-17T16:27:20.435Z,22.08
2022-10-17T16:30:24.982Z,22.09
2022-10-17T16:33:27.661Z,21.94
2022-10-17T16:36:31.619Z,21.86
2022-10-17T16:39:34.196Z,21.83
2022-10-17T16:42:36.760Z,21.69
2022-10-17T16:45:39.523Z,21.64
2022-10-17T16:48:42.909Z,21.64
2022-10-17T16:51:46.861Z,21.63
2022-10-17T16:54:49.415Z,21.59
2022-10-17T16:57:53.034Z,21.48
2022-10-17T17:00:55.654Z,21.45
2022-10-17T17:03:58.826Z,21.37
2022-10-17T17:07:02.966Z,21.23
2022-10-17T17:10:06.401Z,21.17
2022-10-17T17:13:09.073Z,21.10
2022-10-17T17:16:13.399Z,21.10
2022-10-17T17:19:17.865Z,21.14
2022-10-17T17:22:21.750Z,21.07
2022-10-17T17:25:24.567Z,20.99
2022-10-17T17:28:27.991Z,20.90
2022-10-17T17:31:33.359Z,20.82
2022-10-17T17:34:37.335Z,20.79
2022-10-17T17:37:41.257Z,20.68
2022-10-17T17:40:50.582Z,20.55
2022-10-17T17:43:54.317Z,20.45
2022-10-17T17:46:56.852Z,20.40
2022-10-17T17:49:59.423Z,20.31
2022-10-17T17:53:03.359Z,20.26
2022-10-17T17:56:10.493Z,20.26
2022-10-17T17:59:14.296Z,20.23
2022-10-17T18:02:27.064Z,20.11
2022-10-17T18:05:30.017Z,20.02
2022-10-17T18:08:33.934Z,19.96
2022-10-17T18:11:37.414Z,19.90
2022-10-17T18:14:40.033Z,19.85
2022-10-17T18:17:42.904Z,19.81
2022-10-17T18:20:45.507Z,19.77
2022-10-17T18:23:50.558Z,19.72
2022-10-17T18:26:56.026Z,19.63
2022-10-17T18:29:58.722Z,19.57
2022-10-17T18:33:01.284Z,19.51
2022-10-17T18:36:07.091Z,19.44
2022-10-17T18:39:11.377Z,19.39
2022-10-17T18:42:13.917Z,19.35
2022-10-17T18:45:17.388Z,19.27
2022-10-17T18:48:19.964Z,19.19
2022-10-17T18:51:24.069Z,19.15
2022-10-17T18:54:29.205Z,19.10
2022-10-17T18:57:31.948Z,19.08
2022-10-17T19:00:34.930Z,19.05
2022-10-17T19:03:38.061Z,19.04
2022-10-17T19:06:41.951Z,19.02
2022-10-17T19:09:45.846Z,18.98
2022-10-17T19:12:48.473Z,18.97
2022-10-17T19:15:51.060Z,18.95
2022-10-17T19:18:55.371Z,18.88
2022-10-17T19:21:59.998Z,18.86
2022-10-17T19:25:04.213Z,18.80
2022-10-17T19:28:06.926Z,18.75
2022-10-17T19:31:12.983Z,18.70
2022-10-17T19:34:18.933Z,18.65
2022-10-17T19:37:21.496Z,18.60
2022-10-17T19:40:25.533Z,18.57
2022-10-17T19:43:29.172Z,18.58
2022-10-17T19:46:33.832Z,18.57
2022-10-17T19:49:36.967Z,18.56
2022-10-17T19:52:39.517Z,18.56
2022-10-17T19:55:44.000Z,18.55
2022-10-17T19:58:47.061Z,18.53
2022-10-17T20:01:49.721Z,18.52
2022-10-17T20:04:54.763Z,18.50
2022-10-17T20:08:15.520Z,18.47
2022-10-17T20:11:21.854Z,18.47
2022-10-17T20:14:24.664Z,18.43
2022-10-17T20:17:27.478Z,18.38
2022-10-17T20:20:30.269Z,18.32
2022-10-17T20:23:33.324Z,18.26
2022-10-17T20:26:39.067Z,18.20
2022-10-17T20:29:42.441Z,18.18
2022-10-17T20:32:45.122Z,18.14
2022-10-17T20:35:48.410Z,18.09
2022-10-17T20:38:54.287Z,18.06
2022-10-17T20:41:58.260Z,18.03
2022-10-17T20:45:00.965Z,17.88
2022-10-17T20:48:03.626Z,17.82
2022-10-17T20:51:08.621Z,17.78
2022-10-17T20:54:11.796Z,17.75
2022-10-17T20:57:15.740Z,17.70
2022-10-17T21:00:18.468Z,17.66
2022-10-17T21:03:21.055Z,17.64
2022-10-17T21:06:24.952Z,17.60
2022-10-17T21:09:27.591Z,17.58
2022-10-17T21:12:50.146Z,17.54
2022-10-17T21:15:54.357Z,17.50
2022-10-17T21:18:58.144Z,17.48
2022-10-17T21:22:00.867Z,17.48
2022-10-17T21:25:03.487Z,17.45
2022-10-17T21:28:07.609Z,17.44
2022-10-17T21:31:12.716Z,17.43
2022-10-17T21:34:18.930Z,17.42
2022-10-17T21:37:21.692Z,17.40
2022-10-17T21:40:24.266Z,17.42
2022-10-17T21:43:28.326Z,17.35
2022-10-17T21:46:31.579Z,17.36
2022-10-17T21:49:35.108Z,17.32
2022-10-17T21:52:37.629Z,17.34
2022-10-17T21:55:40.355Z,17.34
2022-10-17T21:58:44.900Z,17.33
2022-10-17T22:01:48.044Z,17.33
2022-10-17T22:04:50.821Z,17.34
2022-10-17T22:07:53.366Z,17.33
2022-10-17T22:10:55.964Z,17.31
2022-10-17T22:14:01.446Z,17.32
2022-10-17T22:17:04.224Z,17.32
2022-10-17T22:20:07.846Z,17.29
2022-10-17T22:23:10.523Z,17.30
2022-10-17T22:26:14.106Z,17.30
2022-10-17T22:29:18.825Z,17.30
2022-10-17T22:32:22.605Z,17.29
2022-10-17T22:35:25.436Z,17.29
2022-10-17T22:38:28.301Z,17.24
2022-10-17T22:41:30.845Z,17.25
2022-10-17T22:44:34.890Z,17.21
2022-10-17T22:47:37.697Z,17.17
2022-10-17T22:50:42.532Z,17.18
2022-10-17T22:53:45.325Z,17.19
2022-10-17T22:56:47.903Z,17.22
2022-10-17T22:59:51.912Z,17.23
2022-10-17T23:02:54.954Z,17.23
2022-10-17T23:05:57.675Z,17.23
2022-10-17T23:09:00.465Z,17.23
2022-10-17T23:12:03.030Z,17.23
2022-10-17T23:15:08.278Z,17.23
2022-10-17T23:18:11.415Z,17.25
2022-10-17T23:21:14.180Z,17.26
2022-10-17T23:24:17.077Z,17.24
2022-10-17T23:27:19.670Z,17.20
2022-10-17T23:30:23.719Z,17.20
2022-10-17T23:33:26.412Z,17.18
2022-10-17T23:36:29.010Z,17.14
2022-10-17T23:39:31.619Z,17.12
2022-10-17T23:42:34.255Z,17.13
2022-10-17T23:45:38.309Z,17.14
2022-10-17T23:48:41.496Z,17.13
2022-10-17T23:51:44.094Z,17.15
2022-10-17T23:54:46.817Z,17.14
2022-10-17T23:57:49.396Z,17.12
